Time;durP1;ratioP1;P1;durP2;ratioP2;P2;SDS_P1;SDS_P2;PMS_P1;PMS_P2;Temp;Humidity;BMP_temperature;BMP_pressure;BME280_temperature;BME280_humidity;BME280_pressure;Samples;Min_cycle;Max_cycle;Signal;HPM_P1;HPM_P2
2021/08/06 00:00:34;;;;;;;5.78;2.87;;;;;;;16.97;83.32;94540.56;1779134;81;21066;-58
2021/08/06 00:03:04;;;;;;;2.92;2.22;;;;;;;16.99;83.68;94538.67;1780424;80;21571;-59
2021/08/06 00:05:30;;;;;;;3.35;2.95;;;;;;;17.00;83.31;94543.52;1784667;80;21015;-59
2021/08/06 00:07:57;;;;;;;3.83;2.90;;;;;;;17.02;83.65;94544.28;1784988;80;21054;-58
2021/08/06 00:10:23;;;;;;;3.10;2.80;;;;;;;17.05;83.79;94535.61;1784482;80;21510;-59
2021/08/06 00:12:50;;;;;;;3.42;2.50;;;;;;;17.09;83.67;94535.82;1784729;80;21058;-59
2021/08/06 00:15:16;;;;;;;3.10;2.80;;;;;;;17.12;83.44;94534.78;1784709;80;21042;-59
2021/08/06 00:17:43;;;;;;;3.55;2.52;;;;;;;17.12;83.52;94545.92;1784763;80;21046;-59
2021/08/06 00:20:11;;;;;;;4.75;2.67;;;;;;;17.04;83.26;94545.91;1784623;80;21018;-59
2021/08/06 00:22:38;;;;;;;5.30;2.40;;;;;;;17.06;83.28;94537.83;1785065;80;21452;-58
2021/08/06 00:25:07;;;;;;;3.05;2.58;;;;;;;17.09;83.37;94540.30;1784634;80;21026;-59
2021/08/06 00:27:33;;;;;;;2.65;2.45;;;;;;;17.16;83.38;94548.77;1784783;80;21476;-58
2021/08/06 00:30:00;;;;;;;4.03;3.00;;;;;;;17.22;83.30;94544.41;1784525;80;21129;-58
2021/08/06 00:32:27;;;;;;;2.92;2.47;;;;;;;17.23;83.16;94548.77;1784824;80;21010;-58
2021/08/06 00:34:56;;;;;;;3.60;2.40;;;;;;;17.21;82.67;94546.22;1784552;80;21030;-58
2021/08/06 00:37:23;;;;;;;2.27;2.08;;;;;;;17.20;81.87;94549.82;1784836;80;20998;-59
2021/08/06 00:39:50;;;;;;;4.80;2.30;;;;;;;17.19;81.96;94548.12;1784870;80;21015;-58
2021/08/06 00:42:16;;;;;;;2.20;2.00;;;;;;;17.18;82.02;94547.72;1784905;80;21500;-58
2021/08/06 00:44:44;;;;;;;2.30;2.10;;;;;;;17.22;82.26;94550.59;1784545;80;21022;-59
2021/08/06 00:47:11;;;;;;;3.83;2.17;;;;;;;17.16;81.51;94544.77;1784889;80;21444;-58
2021/08/06 00:49:40;;;;;;;2.37;2.15;;;;;;;17.12;82.04;94549.44;1784827;80;21516;-58
2021/08/06 00:52:10;;;;;;;2.17;1.98;;;;;;;17.09;82.44;94548.30;1784941;80;21030;-58
2021/08/06 00:54:39;;;;;;;2.20;1.90;;;;;;;17.07;82.43;94556.38;1758757;80;20987;-58
2021/08/06 00:57:13;;;;;;;3.08;2.30;;;;;;;17.02;81.71;94551.80;1783712;80;21011;-58
2021/08/06 00:59:41;;;;;;;2.77;2.35;;;;;;;16.98;81.91;94555.58;1784813;80;21011;-59
2021/08/06 01:02:21;;;;;;;2.83;2.22;;;;;;;16.97;82.18;94550.37;1784653;80;21003;-58
2021/08/06 01:05:03;;;;;;;1.85;1.70;;;;;;;16.98;82.41;94552.06;1779926;80;21026;-59
2021/08/06 01:08:02;;;;;;;2.52;2.20;;;;;;;16.91;80.70;94554.72;1779123;81;21023;-58
2021/08/06 01:10:50;;;;;;;4.35;2.25;;;;;;;16.92;81.70;94554.64;1750970;81;21015;-58
2021/08/06 01:13:33;;;;;;;2.02;1.82;;;;;;;16.86;81.71;94541.70;1779251;80;21057;-58
2021/08/06 01:16:05;;;;;;;1.90;1.80;;;;;;;16.72;81.06;94546.47;1770597;81;21460;-59
2021/08/06 01:18:34;;;;;;;3.30;1.92;;;;;;;16.72;81.06;94546.47;1779703;81;21110;-59
2021/08/06 01:21:09;;;;;;;2.17;1.98;;;;;;;16.74;81.35;94545.05;1779074;81;21564;-58
2021/08/06 01:23:39;;;;;;;2.50;1.70;;;;;;;16.61;81.08;94536.94;1779205;81;21058;-59
2021/08/06 01:26:12;;;;;;;2.17;1.85;;;;;;;16.61;81.08;94536.94;1751186;81;21101;-59
2021/08/06 01:28:49;;;;;;;1.80;1.70;;;;;;;16.65;80.29;94549.10;1767804;81;21118;-59
2021/08/06 01:31:28;;;;;;;1.85;1.70;;;;;;;16.63;79.79;94547.00;1779319;81;21035;-59
2021/08/06 01:34:15;;;;;;;1.60;1.50;;;;;;;16.57;79.77;94553.55;1747790;81;21027;-59
2021/08/06 01:36:42;;;;;;;1.90;1.70;;;;;;;16.57;79.77;94553.55;1779045;81;21429;-59
2021/08/06 01:39:10;;;;;;;2.20;1.50;;;;;;;16.52;80.05;94550.30;1779357;81;21034;-59
2021/08/06 01:42:09;;;;;;;1.57;1.47;;;;;;;16.49;80.34;94557.14;1778530;81;21520;-59
2021/08/06 01:44:54;;;;;;;4.47;1.50;;;;;;;16.50;80.67;94550.86;1779142;81;21017;-59
2021/08/06 01:47:31;;;;;;;1.40;1.22;;;;;;;16.48;80.04;94545.23;1778227;81;21015;-59
2021/08/06 01:50:05;;;;;;;1.40;1.30;;;;;;;16.48;80.15;94539.91;1779039;81;21047;-59
2021/08/06 01:52:48;;;;;;;1.30;1.20;;;;;;;16.44;79.70;94541.43;1751423;81;21007;-59
2021/08/06 01:55:17;;;;;;;1.00;1.00;;;;;;;16.44;79.69;94540.09;1779423;80;21485;-59
2021/08/06 01:57:49;;;;;;;1.70;1.22;;;;;;;16.41;80.10;94546.09;1778534;81;21000;-59
2021/08/06 02:00:16;;;;;;;2.25;1.20;;;;;;;16.41;80.10;94546.09;1779342;81;21480;-58
2021/08/06 02:02:45;;;;;;;2.25;1.20;;;;;;;16.37;80.11;94556.52;1779288;81;21477;-59
2021/08/06 02:05:16;;;;;;;1.82;1.05;;;;;;;16.41;79.95;94560.73;1778700;81;21053;-59
2021/08/06 02:07:44;;;;;;;1.90;1.00;;;;;;;16.40;79.89;94570.98;1779439;81;21095;-59
2021/08/06 02:10:14;;;;;;;0.90;0.90;;;;;;;16.39;79.61;94570.61;1779201;81;21015;-58
2021/08/06 02:12:42;;;;;;;1.20;0.88;;;;;;;16.42;79.26;94563.28;1779431;80;21122;-59
2021/08/06 02:15:10;;;;;;;1.25;0.82;;;;;;;16.44;79.87;94549.42;1779223;81;21469;-59
2021/08/06 02:17:41;;;;;;;1.57;1.10;;;;;;;16.43;79.20;94548.20;1751864;81;21018;-59
2021/08/06 02:20:13;;;;;;;;;;;;;;;16.36;77.67;94540.17;1779520;81;21332;-59
2021/08/06 02:22:44;;;;;;;1.20;0.90;;;;;;;16.38;75.87;94547.61;1778470;81;20101;-59
2021/08/06 02:25:14;;;;;;;1.52;0.88;;;;;;;16.41;77.06;94546.94;1751518;81;21030;-58
2021/08/06 02:27:42;;;;;;;1.07;0.88;;;;;;;16.31;78.05;94532.93;1779289;81;21003;-58
2021/08/06 02:30:12;;;;;;;6.55;1.05;;;;;;;16.31;78.05;94532.93;1779220;81;21493;-59
2021/08/06 02:32:41;;;;;;;0.78;0.78;;;;;;;16.18;78.81;94536.30;1779162;81;20983;-59
2021/08/06 02:35:09;;;;;;;0.90;0.90;;;;;;;16.09;77.64;94541.28;1779252;81;21489;-59
2021/08/06 02:37:38;;;;;;;1.27;0.98;;;;;;;16.03;78.28;94531.85;1779341;81;21037;-59
2021/08/06 02:40:07;;;;;;;1.12;0.80;;;;;;;15.92;78.71;94548.88;1779295;80;20983;-58
2021/08/06 02:42:35;;;;;;;0.80;0.80;;;;;;;15.92;78.71;94548.88;1751142;81;20999;-58
2021/08/06 02:45:04;;;;;;;1.72;1.00;;;;;;;15.72;78.90;94542.00;1779197;81;21556;-59
2021/08/06 02:47:31;;;;;;;0.80;0.80;;;;;;;15.72;78.90;94542.00;1779305;81;21493;-58
2021/08/06 02:49:57;;;;;;;2.25;0.90;;;;;;;15.76;79.47;94544.89;1779256;81;21018;-58
2021/08/06 02:52:24;;;;;;;0.90;0.80;;;;;;;15.76;79.90;94551.55;1779266;81;21585;-59
2021/08/06 02:54:52;;;;;;;1.15;0.90;;;;;;;15.76;79.90;94551.55;1751325;81;21022;-58
2021/08/06 02:57:19;;;;;;;0.95;0.85;;;;;;;15.75;80.04;94552.02;1779201;81;20972;-59
2021/08/06 02:59:46;;;;;;;1.42;0.70;;;;;;;15.78;79.76;94547.00;1779528;81;21500;-58
2021/08/06 03:02:12;;;;;;;0.80;0.80;;;;;;;15.82;79.50;94541.88;1779593;80;21018;-59
2021/08/06 03:04:39;;;;;;;2.65;1.00;;;;;;;15.89;79.49;94553.89;1782364;80;20987;-59
2021/08/06 03:07:07;;;;;;;1.15;0.85;;;;;;;15.92;79.33;94551.05;1784933;80;21006;-59
2021/08/06 03:09:34;;;;;;;3.10;1.10;;;;;;;15.98;78.79;94544.56;1785065;80;21491;-59
2021/08/06 03:12:01;;;;;;;1.62;1.10;;;;;;;15.98;78.79;94544.56;1784995;80;21026;-59
2021/08/06 03:14:29;;;;;;;2.20;1.00;;;;;;;16.05;78.84;94538.40;1783969;80;21007;-58
2021/08/06 03:16:56;;;;;;;2.00;1.10;;;;;;;16.10;78.68;94551.85;1784716;80;21030;-58
2021/08/06 03:19:23;;;;;;;0.80;0.80;;;;;;;16.10;78.68;94551.85;1785090;80;21027;-58
2021/08/06 03:21:50;;;;;;;2.05;1.02;;;;;;;16.13;78.30;94554.33;1784958;80;21011;-58
2021/08/06 03:24:17;;;;;;;5.25;1.10;;;;;;;16.11;78.48;94552.22;1784882;80;21090;-58
2021/08/06 03:26:44;;;;;;;2.87;1.15;;;;;;;16.09;78.71;94566.56;1784735;80;20967;-58
2021/08/06 03:29:11;;;;;;;4.00;0.75;;;;;;;16.12;78.72;94557.06;1784622;80;21010;-59
2021/08/06 03:31:37;;;;;;;2.27;0.95;;;;;;;16.13;78.42;94554.81;1784775;80;21034;-59
2021/08/06 03:34:04;;;;;;;2.02;0.90;;;;;;;16.13;78.40;94561.46;1784777;80;20995;-58
2021/08/06 03:36:32;;;;;;;6.08;0.98;;;;;;;16.19;78.12;94567.75;1785139;80;20979;-58
2021/08/06 03:38:58;;;;;;;3.12;0.88;;;;;;;16.19;78.12;94567.75;1785099;80;20987;-58
2021/08/06 03:41:25;;;;;;;2.45;0.90;;;;;;;16.22;77.91;94563.58;1784612;80;20980;-58
2021/08/06 03:43:53;;;;;;;2.45;0.80;;;;;;;16.21;77.34;94568.05;1784868;80;21057;-58
2021/08/06 03:46:20;;;;;;;3.02;0.80;;;;;;;16.22;76.99;94559.59;1784563;80;21022;-59
2021/08/06 03:48:48;;;;;;;3.40;0.80;;;;;;;16.30;77.21;94570.64;1784668;80;21015;-59
2021/08/06 03:51:15;;;;;;;2.35;1.00;;;;;;;16.30;76.90;94555.16;1784815;80;21006;-58
2021/08/06 03:53:42;;;;;;;2.67;1.00;;;;;;;16.42;76.40;94557.11;1784507;80;21066;-59
2021/08/06 03:56:10;;;;;;;0.70;0.70;;;;;;;16.42;76.40;94557.11;1784872;80;21015;-58
2021/08/06 03:58:37;;;;;;;1.60;0.72;;;;;;;16.48;75.87;94565.20;1784885;80;21472;-59
2021/08/06 04:01:04;;;;;;;1.15;0.70;;;;;;;16.56;75.71;94580.29;1785068;80;21027;-59
2021/08/06 04:03:31;;;;;;;3.17;0.98;;;;;;;16.58;75.49;94575.26;1785053;80;21034;-59
2021/08/06 04:05:58;;;;;;;3.65;0.90;;;;;;;16.56;74.65;94577.14;1784921;80;21481;-59
2021/08/06 04:08:25;;;;;;;0.60;0.60;;;;;;;16.52;74.32;94583.59;1784717;80;21074;-59
2021/08/06 04:10:53;;;;;;;12.63;2.35;;;;;;;16.39;73.16;94587.43;1784173;80;21086;-59
2021/08/06 04:13:20;;;;;;;2.15;0.82;;;;;;;16.41;74.01;94602.84;1784486;80;21018;-59
2021/08/06 04:15:46;;;;;;;1.85;0.60;;;;;;;16.42;74.36;94604.55;1784885;80;21015;-59
2021/08/06 04:18:13;;;;;;;0.60;0.60;;;;;;;16.36;74.23;94603.59;1784604;80;21535;-59
2021/08/06 04:20:40;;;;;;;0.60;0.60;;;;;;;16.36;74.71;94608.91;1784999;80;21002;-59
2021/08/06 04:23:07;;;;;;;3.17;0.62;;;;;;;16.36;74.65;94608.91;1784582;80;20987;-59
2021/08/06 04:25:34;;;;;;;2.20;0.80;;;;;;;16.33;74.50;94613.09;1784727;80;21029;-59
2021/08/06 04:28:01;;;;;;;1.10;0.62;;;;;;;16.36;74.83;94604.92;1784889;80;20998;-59
2021/08/06 04:30:27;;;;;;;3.15;0.62;;;;;;;16.41;75.21;94618.83;1784747;80;21003;-59
2021/08/06 04:32:55;;;;;;;2.67;0.50;;;;;;;16.40;73.99;94613.13;1784589;80;21552;-59
2021/08/06 04:35:22;;;;;;;0.57;0.57;;;;;;;16.40;73.99;94613.13;1784593;80;21014;-59
2021/08/06 04:37:53;;;;;;;0.72;0.50;;;;;;;16.39;74.21;94600.74;1784591;80;21019;-59
2021/08/06 04:40:21;;;;;;;2.47;0.60;;;;;;;16.40;74.47;94608.25;1784749;80;21019;-59
2021/08/06 04:42:49;;;;;;;1.60;0.60;;;;;;;16.40;74.73;94609.13;1784509;80;21015;-59
2021/08/06 04:45:16;;;;;;;0.40;0.40;;;;;;;16.35;74.86;94611.65;1784628;80;21055;-59
2021/08/06 04:47:49;;;;;;;0.35;0.35;;;;;;;16.30;75.75;94613.23;1784742;80;21050;-59
2021/08/06 04:50:17;;;;;;;;;;;;;;;16.26;74.83;94613.52;1787383;80;21007;-59
2021/08/06 04:52:45;;;;;;;0.50;0.50;;;;;;;16.26;75.66;94620.17;1784597;80;20109;-59
2021/08/06 04:55:13;;;;;;;1.65;0.40;;;;;;;16.16;74.20;94628.66;1784574;80;21026;-59
2021/08/06 04:57:41;;;;;;;0.50;0.50;;;;;;;16.16;74.20;94628.66;1784857;80;21011;-59
2021/08/06 05:00:09;;;;;;;0.60;0.60;;;;;;;16.19;74.65;94631.14;1784505;80;21069;-59
2021/08/06 05:02:36;;;;;;;0.70;0.70;;;;;;;16.11;72.52;94636.05;1758838;80;21014;-59
2021/08/06 05:05:05;;;;;;;0.82;0.80;;;;;;;16.04;72.15;94639.13;1784778;80;21050;-59
2021/08/06 05:07:31;;;;;;;0.60;0.60;;;;;;;16.04;72.15;94639.13;1784648;80;21029;-58
2021/08/06 05:09:58;;;;;;;0.65;0.62;;;;;;;16.01;73.09;94634.84;1784677;80;21027;-59
2021/08/06 05:12:25;;;;;;;0.75;0.70;;;;;;;16.03;74.07;94642.72;1784699;80;21007;-59
2021/08/06 05:14:52;;;;;;;2.02;0.93;;;;;;;16.01;73.22;94644.16;1784446;80;21058;-59
2021/08/06 05:17:19;;;;;;;0.88;0.60;;;;;;;16.07;73.77;94635.81;1784978;80;20991;-59
2021/08/06 05:19:45;;;;;;;0.65;0.60;;;;;;;16.13;72.87;94643.48;1784862;80;20969;-59
2021/08/06 05:22:13;;;;;;;0.78;0.60;;;;;;;16.09;72.79;94643.73;1784773;80;21019;-59
2021/08/06 05:24:39;;;;;;;2.95;0.60;;;;;;;16.11;72.02;94650.68;1784745;80;21536;-59
2021/08/06 05:27:07;;;;;;;3.30;0.62;;;;;;;16.11;72.02;94650.68;1784988;80;20955;-59
2021/08/06 05:29:33;;;;;;;0.62;0.62;;;;;;;16.12;72.15;94655.53;1758602;80;21583;-58
2021/08/06 05:32:00;;;;;;;1.20;1.00;;;;;;;16.11;73.72;94653.34;1784743;80;21022;-59
2021/08/06 05:34:27;;;;;;;0.50;0.50;;;;;;;16.11;73.72;94653.34;1784649;80;21066;-59
2021/08/06 05:36:54;;;;;;;0.75;0.75;;;;;;;16.06;72.51;94654.07;1785050;80;20955;-59
2021/08/06 05:39:21;;;;;;;0.70;0.70;;;;;;;16.10;72.38;94642.33;1784434;80;21014;-59
2021/08/06 05:41:47;;;;;;;0.57;0.57;;;;;;;16.10;72.38;94642.33;1784790;80;21011;-59
2021/08/06 05:44:16;;;;;;;0.98;0.93;;;;;;;16.20;73.32;94654.17;1784578;80;21062;-59
2021/08/06 05:46:43;;;;;;;2.75;0.60;;;;;;;16.28;73.01;94656.41;1784918;80;21555;-59
2021/08/06 05:49:10;;;;;;;0.85;0.60;;;;;;;16.31;73.48;94661.55;1785170;80;20967;-59
2021/08/06 05:51:37;;;;;;;0.70;0.70;;;;;;;16.28;71.48;94659.52;1784957;80;21476;-59
2021/08/06 05:54:04;;;;;;;0.72;0.70;;;;;;;16.18;70.92;94668.03;1784604;80;21086;-59
2021/08/06 05:56:32;;;;;;;2.15;0.78;;;;;;;16.17;72.22;94664.97;1784927;80;21488;-59
2021/08/06 05:58:59;;;;;;;0.70;0.70;;;;;;;16.17;72.22;94664.97;1784348;80;21034;-59
2021/08/06 06:01:26;;;;;;;0.80;0.80;;;;;;;16.22;71.55;94663.38;1784548;80;21023;-59
2021/08/06 06:04:03;;;;;;;0.93;0.93;;;;;;;16.24;70.81;94646.87;1781051;80;21078;-60
2021/08/06 06:06:41;;;;;;;1.10;1.00;;;;;;;16.24;70.81;94646.87;1776946;81;21039;-59
2021/08/06 06:09:09;;;;;;;0.90;0.90;;;;;;;16.39;70.35;94643.34;1779568;80;21006;-59
2021/08/06 06:11:36;;;;;;;0.80;0.80;;;;;;;16.62;69.80;94591.91;1779037;81;20979;-58
2021/08/06 06:14:03;;;;;;;0.80;0.80;;;;;;;16.84;68.39;94628.84;1778872;80;21010;-59
2021/08/06 06:16:30;;;;;;;0.70;0.70;;;;;;;17.09;68.76;94633.59;1779126;81;21043;-58
2021/08/06 06:18:58;;;;;;;1.25;0.60;;;;;;;17.41;68.06;94639.66;1779300;81;21129;-60
2021/08/06 06:21:25;;;;;;;1.60;0.53;;;;;;;17.64;66.42;94627.58;1778915;81;21078;-58
2021/08/06 06:23:51;;;;;;;0.60;0.60;;;;;;;17.66;65.26;94638.98;1779187;80;21011;-59
2021/08/06 06:26:18;;;;;;;2.00;0.60;;;;;;;17.72;67.22;94644.44;1779227;81;21027;-59
2021/08/06 06:28:45;;;;;;;0.60;0.60;;;;;;;17.90;66.16;94654.00;1779206;81;21075;-59
2021/08/06 06:31:12;;;;;;;0.80;0.80;;;;;;;17.97;65.95;94646.48;1779149;81;21031;-58
2021/08/06 06:33:39;;;;;;;0.60;0.60;;;;;;;18.18;67.26;94624.72;1779618;80;21533;-58
2021/08/06 06:36:06;;;;;;;1.67;0.60;;;;;;;18.32;62.53;94644.24;1778919;81;21058;-58
2021/08/06 06:38:34;;;;;;;0.60;0.60;;;;;;;18.52;64.37;94629.60;1779537;81;21038;-59
2021/08/06 06:41:02;;;;;;;0.70;0.70;;;;;;;18.69;62.52;94635.64;1779675;81;20980;-59
2021/08/06 06:43:31;;;;;;;0.70;0.70;;;;;;;18.79;61.99;94634.11;1779169;81;21039;-59
2021/08/06 06:45:57;;;;;;;0.75;0.57;;;;;;;18.79;60.78;94636.78;1779078;81;21477;-59
2021/08/06 06:48:25;;;;;;;0.60;0.60;;;;;;;18.87;60.67;94630.44;1779515;81;21043;-59
2021/08/06 06:50:53;;;;;;;1.22;0.60;;;;;;;19.07;62.03;94626.92;1779369;80;21035;-59
2021/08/06 06:53:20;;;;;;;0.78;0.60;;;;;;;19.33;62.37;94620.67;1779486;81;21026;-59
2021/08/06 06:55:48;;;;;;;0.57;0.57;;;;;;;19.37;59.71;94621.30;1779089;81;21011;-59
2021/08/06 06:58:14;;;;;;;0.50;0.50;;;;;;;19.28;59.45;94632.17;1779317;80;21019;-59
2021/08/06 07:00:42;;;;;;;0.70;0.70;;;;;;;19.20;57.82;94633.14;1779309;81;21058;-59
2021/08/06 07:03:10;;;;;;;0.50;0.50;;;;;;;19.19;59.77;94634.97;1779282;81;21030;-59
2021/08/06 07:05:37;;;;;;;0.60;0.60;;;;;;;19.20;58.77;94627.34;1779097;81;21038;-59
2021/08/06 07:08:04;;;;;;;0.60;0.60;;;;;;;19.19;57.77;94634.97;1779390;81;21069;-59
2021/08/06 07:10:32;;;;;;;0.50;0.50;;;;;;;19.32;58.71;94637.66;1779324;81;21046;-59
2021/08/06 07:12:59;;;;;;;1.35;0.50;;;;;;;19.54;59.06;94634.38;1779563;80;21531;-59
2021/08/06 07:15:26;;;;;;;0.60;0.60;;;;;;;19.20;57.24;94639.83;1779094;81;20987;-59
2021/08/06 07:17:53;;;;;;;0.50;0.50;;;;;;;19.18;57.88;94643.11;1779367;81;21048;-59
2021/08/06 07:20:20;;;;;;;1.05;0.60;;;;;;;19.29;59.95;94651.74;1779201;81;21010;-59
2021/08/06 07:22:48;;;;;;;2.52;0.70;;;;;;;19.29;58.89;94647.24;1779425;81;20975;-59
2021/08/06 07:25:17;;;;;;;7.42;4.75;;;;;;;19.45;59.12;94645.70;1778925;81;21504;-59
2021/08/06 07:27:47;;;;;;;22.20;16.37;;;;;;;19.43;57.11;94644.98;1779469;81;20991;-59
2021/08/06 07:30:15;;;;;;;1.60;1.30;;;;;;;19.33;57.63;94655.45;1779118;80;21019;-59
2021/08/06 07:32:42;;;;;;;1.67;0.60;;;;;;;19.22;58.30;94651.28;1779077;80;21042;-58
2021/08/06 07:35:11;;;;;;;1.17;0.72;;;;;;;19.11;58.16;94649.83;1779467;81;20986;-59
2021/08/06 07:37:41;;;;;;;0.72;0.70;;;;;;;18.99;58.30;94657.70;1779505;80;21472;-59
2021/08/06 07:40:10;;;;;;;0.60;0.60;;;;;;;18.91;58.22;94652.01;1779403;81;21046;-59
2021/08/06 07:42:37;;;;;;;0.62;0.62;;;;;;;18.76;57.56;94649.02;1779580;81;21029;-59
2021/08/06 07:45:06;;;;;;;0.90;0.70;;;;;;;19.00;59.34;94659.91;1778992;81;21105;-59
2021/08/06 07:47:33;;;;;;;1.07;0.90;;;;;;;19.15;58.87;94652.20;1779521;81;21513;-58
2021/08/06 07:50:00;;;;;;;0.60;0.60;;;;;;;19.24;59.72;94656.05;1779471;80;21010;-59
2021/08/06 07:52:27;;;;;;;0.90;0.90;;;;;;;19.24;57.71;94657.39;1779297;81;21098;-59
2021/08/06 07:54:53;;;;;;;1.32;0.70;;;;;;;19.31;57.46;94655.17;1779361;81;21035;-59
2021/08/06 07:57:21;;;;;;;1.35;0.90;;;;;;;19.37;56.57;94651.58;1779150;81;21011;-59
2021/08/06 07:59:48;;;;;;;0.80;0.80;;;;;;;19.24;58.38;94668.94;1779200;81;20991;-59
2021/08/06 08:02:14;;;;;;;0.70;0.70;;;;;;;19.13;57.58;94662.62;1779572;81;21520;-59
2021/08/06 08:04:42;;;;;;;0.50;0.50;;;;;;;19.30;60.02;94664.98;1779805;80;20975;-59
2021/08/06 08:07:09;;;;;;;1.40;0.68;;;;;;;19.37;55.76;94674.80;1784911;80;20975;-59
2021/08/06 08:09:36;;;;;;;0.62;0.60;;;;;;;19.14;55.78;94675.88;1785238;80;20955;-59
2021/08/06 08:12:04;;;;;;;0.80;0.80;;;;;;;19.09;56.31;94675.32;1784869;80;21019;-59
2021/08/06 08:14:31;;;;;;;0.75;0.72;;;;;;;19.05;59.23;94670.27;1784796;80;20990;-59
2021/08/06 08:16:58;;;;;;;0.60;0.60;;;;;;;19.18;58.16;94681.89;1784950;80;21521;-59
2021/08/06 08:19:25;;;;;;;1.55;0.75;;;;;;;19.01;56.82;94683.85;1784856;80;21022;-58
2021/08/06 08:21:52;;;;;;;0.85;0.62;;;;;;;19.01;58.29;94686.53;1784478;80;21058;-59
2021/08/06 08:24:19;;;;;;;0.60;0.60;;;;;;;18.96;58.01;94699.83;1784945;80;21508;-58
2021/08/06 08:26:46;;;;;;;0.80;0.80;;;;;;;18.92;57.70;94706.31;1784607;80;21023;-59
2021/08/06 08:29:13;;;;;;;0.88;0.80;;;;;;;19.05;58.86;94709.04;1785036;80;21011;-58
2021/08/06 08:31:40;;;;;;;1.82;1.00;;;;;;;19.12;57.65;94713.88;1784464;80;21011;-59
2021/08/06 08:34:08;;;;;;;1.37;0.88;;;;;;;19.31;58.80;94712.67;1784971;80;20982;-59
2021/08/06 08:36:35;;;;;;;0.78;0.78;;;;;;;19.48;58.61;94715.08;1784615;80;21024;-59
2021/08/06 08:39:04;;;;;;;2.12;1.12;;;;;;;19.87;57.55;94712.00;1784852;80;20990;-58
2021/08/06 08:41:34;;;;;;;1.00;1.00;;;;;;;20.16;56.40;94703.28;1784725;80;21551;-59
2021/08/06 08:44:02;;;;;;;1.07;0.93;;;;;;;20.25;54.60;94709.80;1785243;80;21018;-58
2021/08/06 08:46:30;;;;;;;0.70;0.70;;;;;;;20.76;58.13;94711.06;1784793;80;21006;-59
2021/08/06 08:49:00;;;;;;;0.95;0.95;;;;;;;20.93;54.22;94709.84;1784531;80;21011;-59
2021/08/06 08:51:30;;;;;;;0.80;0.80;;;;;;;20.96;54.34;94731.06;1784982;80;21074;-59
2021/08/06 08:54:01;;;;;;;1.55;0.90;;;;;;;20.96;50.20;94733.74;1785066;80;21039;-59
2021/08/06 08:56:30;;;;;;;3.10;0.70;;;;;;;20.68;54.23;94730.88;1758539;80;20983;-59
2021/08/06 08:58:58;;;;;;;0.70;0.70;;;;;;;21.08;52.40;94713.22;1784867;80;21003;-59
2021/08/06 09:01:25;;;;;;;1.22;0.80;;;;;;;20.95;52.24;94724.84;1784848;80;21003;-59
2021/08/06 09:03:54;;;;;;;1.17;0.80;;;;;;;20.63;51.90;94723.16;1784744;80;21027;-59
2021/08/06 09:06:43;;;;;;;0.80;0.80;;;;;;;20.46;52.28;94727.50;1784778;80;21058;-59
2021/08/06 09:09:20;;;;;;;3.42;0.82;;;;;;;20.13;53.46;94730.25;1782421;80;21007;-59
2021/08/06 09:12:11;;;;;;;1.72;1.10;;;;;;;20.14;54.59;94736.49;1783914;80;21015;-59
2021/08/06 09:14:46;;;;;;;0.78;0.75;;;;;;;20.50;55.82;94729.85;1771567;80;21042;-59
2021/08/06 09:17:14;;;;;;;2.17;0.90;;;;;;;20.67;52.57;94727.34;1784734;80;20983;-59
2021/08/06 09:19:44;;;;;;;0.70;0.70;;;;;;;20.74;52.79;94729.96;1784928;80;21094;-59
2021/08/06 09:22:22;;;;;;;1.02;0.88;;;;;;;20.42;52.07;94723.34;1785081;80;21481;-59
2021/08/06 09:25:03;;;;;;;1.20;1.10;;;;;;;20.57;55.24;94730.80;1784872;80;21038;-59
2021/08/06 09:27:34;;;;;;;1.85;0.80;;;;;;;20.52;53.74;94729.75;1784681;80;21011;-59
2021/08/06 09:30:05;;;;;;;1.15;1.05;;;;;;;20.49;52.35;94736.68;1783390;80;21023;-59
2021/08/06 09:32:48;;;;;;;1.98;0.90;;;;;;;20.64;53.35;94737.44;1784952;80;21050;-59
2021/08/06 09:35:17;;;;;;;0.80;0.80;;;;;;;20.94;54.01;94732.99;1783245;80;21018;-59
2021/08/06 09:37:44;;;;;;;2.05;1.05;;;;;;;21.29;51.04;94743.84;1784767;80;21053;-59
2021/08/06 09:40:18;;;;;;;1.25;0.80;;;;;;;21.44;50.78;94742.33;1784561;80;21559;-59
2021/08/06 09:42:53;;;;;;;1.00;1.00;;;;;;;21.49;50.44;94741.01;1785006;80;21524;-59
2021/08/06 09:45:24;;;;;;;0.88;0.88;;;;;;;21.34;50.09;94732.73;1784380;80;21006;-59
2021/08/06 09:47:56;;;;;;;1.35;1.00;;;;;;;21.37;49.93;94733.87;1785020;80;20971;-59
2021/08/06 09:50:28;;;;;;;1.70;1.00;;;;;;;21.43;49.41;94736.61;1784867;80;21011;-59
2021/08/06 09:52:54;;;;;;;0.90;0.90;;;;;;;21.13;49.97;94735.19;1783931;80;21065;-59
2021/08/06 09:55:31;;;;;;;1.10;1.00;;;;;;;20.94;49.65;94743.72;1784884;80;21019;-59
2021/08/06 09:58:01;;;;;;;0.90;0.90;;;;;;;20.84;49.68;94731.95;1784901;80;20987;-59
2021/08/06 10:00:28;;;;;;;1.40;1.10;;;;;;;20.70;51.58;94751.73;1784587;80;21019;-59
2021/08/06 10:02:56;;;;;;;1.20;1.10;;;;;;;20.47;52.16;94739.95;1784794;80;21023;-59
2021/08/06 10:05:27;;;;;;;0.80;0.80;;;;;;;20.12;51.65;94752.66;1783852;80;21627;-59
2021/08/06 10:07:57;;;;;;;1.00;1.00;;;;;;;20.04;52.11;94737.61;1779485;81;21316;-59
2021/08/06 10:10:31;;;;;;;1.05;1.05;;;;;;;20.27;52.89;94727.47;1779539;80;21015;-59
2021/08/06 10:13:00;;;;;;;2.08;1.10;;;;;;;20.68;51.92;94731.73;1751279;81;21489;-59
2021/08/06 10:15:28;;;;;;;1.07;1.00;;;;;;;21.26;52.48;94725.75;1779344;81;21007;-59
2021/08/06 10:17:58;;;;;;;1.17;0.93;;;;;;;21.80;49.33;94719.91;1779469;81;21017;-59
2021/08/06 10:20:27;;;;;;;2.02;1.20;;;;;;;22.23;48.37;94717.45;1779429;80;20999;-59
2021/08/06 10:22:54;;;;;;;1.25;1.00;;;;;;;22.53;47.74;94719.16;1779489;81;21026;-58
2021/08/06 10:25:24;;;;;;;1.25;1.10;;;;;;;22.30;47.86;94730.39;1779245;81;21015;-59
2021/08/06 10:27:51;;;;;;;0.70;0.70;;;;;;;22.49;49.08;94727.97;1779475;80;21019;-59
2021/08/06 10:30:25;;;;;;;1.10;1.05;;;;;;;22.14;47.03;94738.78;1779278;81;21034;-60
2021/08/06 10:33:22;;;;;;;1.32;1.20;;;;;;;22.28;47.95;94729.69;1779469;81;20995;-59
2021/08/06 10:35:53;;;;;;;1.37;1.27;;;;;;;22.60;51.05;94730.68;1779300;81;21051;-59
2021/08/06 10:38:43;;;;;;;1.55;1.00;;;;;;;22.82;47.04;94735.17;1779505;81;21489;-59
2021/08/06 10:41:17;;;;;;;2.42;0.95;;;;;;;23.15;50.27;94717.79;1779566;81;20995;-59
2021/08/06 10:44:02;;;;;;;1.20;1.10;;;;;;;23.60;47.46;94743.22;1779482;81;21078;-59
2021/08/06 10:47:04;;;;;;;2.33;1.20;;;;;;;23.21;46.06;94746.41;1779366;81;21022;-59
2021/08/06 10:49:32;;;;;;;1.10;1.00;;;;;;;22.85;47.61;94736.26;1779769;81;21465;-59
2021/08/06 10:52:16;;;;;;;1.07;1.02;;;;;;;23.10;46.56;94737.84;1779674;80;21512;-59
2021/08/06 10:54:44;;;;;;;1.30;1.00;;;;;;;23.00;48.83;94736.89;1772509;81;21015;-59
2021/08/06 10:57:22;;;;;;;1.52;1.20;;;;;;;23.01;46.42;94726.51;1779698;81;21432;-59
2021/08/06 10:59:49;;;;;;;2.05;1.15;;;;;;;23.27;48.70;94746.39;1778260;81;21023;-59
2021/08/06 11:02:42;;;;;;;1.00;1.00;;;;;;;23.38;46.60;94733.38;1779356;80;21095;-58
2021/08/06 11:05:31;;;;;;;1.45;1.35;;;;;;;23.34;46.62;94743.56;1779480;80;21039;-59
2021/08/06 11:08:01;;;;;;;1.40;1.30;;;;;;;23.01;47.24;94742.66;1779455;80;21057;-58
2021/08/06 11:10:50;;;;;;;1.10;1.00;;;;;;;23.37;47.59;94737.06;1779325;80;21536;-59
2021/08/06 11:13:37;;;;;;;1.35;1.25;;;;;;;23.62;45.25;94727.30;1779601;81;21014;-59
2021/08/06 11:16:09;;;;;;;1.85;1.20;;;;;;;23.82;49.81;94726.16;1778699;81;21881;-59
2021/08/06 11:18:46;;;;;;;1.35;1.20;;;;;;;24.24;49.15;94719.40;1779583;81;21014;-59
2021/08/06 11:21:13;;;;;;;2.47;1.42;;;;;;;24.66;46.81;94724.27;1779579;80;21489;-59
2021/08/06 11:23:40;;;;;;;1.55;1.30;;;;;;;24.24;44.12;94720.75;1779028;80;21043;-59
2021/08/06 11:26:09;;;;;;;1.40;1.22;;;;;;;24.22;45.09;94725.41;1779518;81;21481;-59
2021/08/06 11:28:36;;;;;;;1.82;1.50;;;;;;;24.23;44.10;94736.07;1779538;80;21015;-59
2021/08/06 11:31:15;;;;;;;1.40;1.30;;;;;;;24.37;45.28;94727.66;1778753;81;21129;-59
2021/08/06 11:33:42;;;;;;;2.33;1.27;;;;;;;24.07;42.65;94727.11;1778904;81;21046;-59
2021/08/06 11:36:17;;;;;;;1.17;1.07;;;;;;;23.99;43.72;94726.92;1779181;80;21039;-59
2021/08/06 11:38:44;;;;;;;2.55;1.40;;;;;;;23.97;43.86;94734.28;1779479;80;21014;-59
2021/08/06 11:41:11;;;;;;;1.37;1.30;;;;;;;23.53;43.58;94738.33;1779123;80;21016;-59
2021/08/06 11:43:38;;;;;;;2.22;1.40;;;;;;;23.17;43.71;94743.59;1779235;81;21054;-59
2021/08/06 11:46:14;;;;;;;1.70;1.20;;;;;;;23.04;44.71;94734.82;1779414;80;20991;-59